createdAt,value
2023-03-22T00:00:15.506Z,9.56
2023-03-22T00:03:04.815Z,9.47
2023-03-22T00:05:33.192Z,9.46
2023-03-22T00:08:00.810Z,9.43
2023-03-22T00:10:29.208Z,9.35
2023-03-22T00:12:57.299Z,9.34
2023-03-22T00:15:24.572Z,9.37
2023-03-22T00:17:52.278Z,9.32
2023-03-22T00:20:20.827Z,9.28
2023-03-22T00:22:48.452Z,9.22
2023-03-22T00:25:16.482Z,9.29
2023-03-22T00:27:44.469Z,9.25
2023-03-22T00:30:12.474Z,9.16
2023-03-22T00:32:40.340Z,9.19
2023-03-22T00:35:09.405Z,9.17
2023-03-22T00:37:41.164Z,9.08
2023-03-22T00:40:13.284Z,8.90
2023-03-22T00:42:42.001Z,9.04
2023-03-22T00:45:12.540Z,8.93
2023-03-22T00:47:39.733Z,8.89
2023-03-22T00:50:08.270Z,8.86
2023-03-22T00:52:35.535Z,8.79
2023-03-22T00:55:03.239Z,8.76
2023-03-22T00:57:30.497Z,8.73
2023-03-22T00:59:58.430Z,8.73
2023-03-22T01:02:29.809Z,8.68
2023-03-22T01:04:57.937Z,8.69
2023-03-22T01:07:25.267Z,8.72
2023-03-22T01:09:53.640Z,8.81
2023-03-22T01:12:21.207Z,8.86
2023-03-22T01:14:48.810Z,8.88
2023-03-22T01:17:16.090Z,8.88
2023-03-22T01:19:43.581Z,8.82
2023-03-22T01:22:10.848Z,8.82
2023-03-22T01:24:38.388Z,8.84
2023-03-22T01:27:05.981Z,8.82
2023-03-22T01:29:33.585Z,8.74
2023-03-22T01:32:01.182Z,8.75
2023-03-22T01:34:28.722Z,8.73
2023-03-22T01:36:55.941Z,8.72
2023-03-22T01:39:23.557Z,8.71
2023-03-22T01:41:50.787Z,8.64
2023-03-22T01:44:21.925Z,8.64
2023-03-22T01:46:51.389Z,8.62
2023-03-22T01:49:40.069Z,8.58
2023-03-22T01:52:14.383Z,8.53
2023-03-22T01:54:52.664Z,8.49
2023-03-22T01:57:20.446Z,8.51
2023-03-22T01:59:50.198Z,8.49
2023-03-22T02:02:22.247Z,8.46
2023-03-22T02:04:57.963Z,8.43
2023-03-22T02:07:28.326Z,8.47
2023-03-22T02:09:56.603Z,8.40
2023-03-22T02:12:58.008Z,8.39
2023-03-22T02:15:53.818Z,8.34
2023-03-22T02:19:09.018Z,8.33
2023-03-22T02:22:15.488Z,8.30
2023-03-22T02:25:12.833Z,8.24
2023-03-22T02:28:17.368Z,8.11
2023-03-22T02:31:26.541Z,8.06
2023-03-22T02:34:23.853Z,8.00
2023-03-22T02:37:18.089Z,7.87
2023-03-22T02:39:54.212Z,7.92
2023-03-22T02:42:49.153Z,7.88
2023-03-22T02:45:35.110Z,7.86
2023-03-22T02:48:14.733Z,7.87
2023-03-22T02:51:10.097Z,7.76
2023-03-22T02:54:08.454Z,7.75
2023-03-22T02:56:46.943Z,7.73
2023-03-22T02:59:17.903Z,7.75
2023-03-22T03:01:56.411Z,7.71
2023-03-22T03:04:33.910Z,7.76
2023-03-22T03:07:09.411Z,7.71
2023-03-22T03:09:41.359Z,7.69
2023-03-22T03:12:21.697Z,7.69
2023-03-22T03:14:49.211Z,7.72
2023-03-22T03:17:56.413Z,7.67
2023-03-22T03:21:04.858Z,7.68
2023-03-22T03:24:31.811Z,7.73
2023-03-22T03:27:12.438Z,7.69
2023-03-22T03:30:00.681Z,7.74
2023-03-22T03:32:43.418Z,7.75
2023-03-22T03:35:22.377Z,7.78
2023-03-22T03:38:11.994Z,7.76
2023-03-22T03:41:01.135Z,7.84
2023-03-22T03:43:28.446Z,7.94
2023-03-22T03:45:56.490Z,8.03
2023-03-22T03:48:29.282Z,8.14
2023-03-22T03:50:59.457Z,8.16
2023-03-22T03:53:26.963Z,8.24
2023-03-22T03:55:54.753Z,8.27
2023-03-22T03:58:22.309Z,8.27
2023-03-22T04:00:51.015Z,8.32
2023-03-22T04:03:18.318Z,8.30
2023-03-22T04:05:46.421Z,8.34
2023-03-22T04:08:14.103Z,8.26
2023-03-22T04:10:41.849Z,8.32
2023-03-22T04:13:09.198Z,8.32
2023-03-22T04:15:37.065Z,8.35
2023-03-22T04:18:04.820Z,8.43
2023-03-22T04:20:32.417Z,8.50
2023-03-22T04:23:00.342Z,8.52
2023-03-22T04:25:30.404Z,8.56
2023-03-22T04:28:00.669Z,8.57
2023-03-22T04:30:28.394Z,8.48
2023-03-22T04:32:56.458Z,8.55
2023-03-22T04:35:24.165Z,8.57
2023-03-22T04:37:51.756Z,8.58
2023-03-22T04:40:21.156Z,8.56
2023-03-22T04:42:48.588Z,8.52
2023-03-22T04:45:16.276Z,8.56
2023-03-22T04:47:43.596Z,8.59
2023-03-22T04:50:11.387Z,8.56
2023-03-22T04:52:38.709Z,8.55
2023-03-22T04:55:07.138Z,8.61
2023-03-22T04:57:35.838Z,8.63
2023-03-22T05:00:08.439Z,8.70
2023-03-22T05:02:41.146Z,8.71
2023-03-22T05:05:09.562Z,8.72
2023-03-22T05:07:36.929Z,8.74
2023-03-22T05:10:05.698Z,8.75
2023-03-22T05:12:33.017Z,8.73
2023-03-22T05:15:03.741Z,8.85
2023-03-22T05:17:31.822Z,8.99
2023-03-22T05:19:59.621Z,8.97
2023-03-22T05:22:26.975Z,9.02
2023-03-22T05:24:54.592Z,9.14
2023-03-22T05:27:31.301Z,9.22
2023-03-22T05:29:59.062Z,9.30
2023-03-22T05:32:29.379Z,9.32
2023-03-22T05:34:57.167Z,9.46
2023-03-22T05:37:24.588Z,9.30
2023-03-22T05:39:52.241Z,9.36
2023-03-22T05:42:19.499Z,9.43
2023-03-22T05:44:47.169Z,9.53
2023-03-22T05:47:14.503Z,9.44
2023-03-22T05:49:42.185Z,9.54
2023-03-22T05:52:09.827Z,9.42
2023-03-22T05:54:37.451Z,9.39
2023-03-22T05:57:04.793Z,9.53
2023-03-22T05:59:32.477Z,9.65
2023-03-22T06:01:59.736Z,9.75
2023-03-22T06:04:27.286Z,9.98
2023-03-22T06:06:54.641Z,10.16
2023-03-22T06:09:22.335Z,10.33
2023-03-22T06:11:49.710Z,10.36
2023-03-22T06:14:17.373Z,10.47
2023-03-22T06:16:44.708Z,10.41
2023-03-22T06:19:12.284Z,10.41
2023-03-22T06:21:39.594Z,10.38
2023-03-22T06:24:07.355Z,10.27
2023-03-22T06:26:34.631Z,10.29
2023-03-22T06:29:03.713Z,10.32
2023-03-22T06:31:31.002Z,10.31
2023-03-22T06:33:58.574Z,10.34
2023-03-22T06:36:26.008Z,10.39
2023-03-22T06:38:54.158Z,10.54
2023-03-22T06:41:21.631Z,10.75
2023-03-22T06:43:49.271Z,10.96
2023-03-22T06:46:16.802Z,11.15
2023-03-22T06:48:44.404Z,11.21
2023-03-22T06:51:11.729Z,11.36
2023-03-22T06:53:39.338Z,11.56
2023-03-22T06:56:07.240Z,11.43
2023-03-22T06:58:34.841Z,11.42
2023-03-22T07:01:02.082Z,11.40
2023-03-22T07:03:29.697Z,11.52
2023-03-22T07:06:08.704Z,11.39
2023-03-22T07:08:37.268Z,11.42
2023-03-22T07:11:06.437Z,11.60
2023-03-22T07:13:34.385Z,11.62
2023-03-22T07:16:02.887Z,11.83
2023-03-22T07:18:30.918Z,11.89
2023-03-22T07:20:58.367Z,12.17
2023-03-22T07:23:26.561Z,12.42
2023-03-22T07:25:56.017Z,12.38
2023-03-22T07:28:23.971Z,12.33
2023-03-22T07:31:10.020Z,12.32
2023-03-22T07:33:41.370Z,12.41
2023-03-22T07:36:10.400Z,12.68
2023-03-22T07:38:38.323Z,12.89
2023-03-22T07:41:06.340Z,13.31
2023-03-22T07:43:44.072Z,13.59
2023-03-22T07:46:18.215Z,14.09
2023-03-22T07:48:46.249Z,14.77
2023-03-22T07:51:13.567Z,15.64
2023-03-22T07:53:41.373Z,16.54
2023-03-22T07:56:09.237Z,17.20
2023-03-22T07:58:36.892Z,18.03
2023-03-22T08:01:09.068Z,18.19
2023-03-22T08:03:37.788Z,17.81
2023-03-22T08:06:07.759Z,17.44
2023-03-22T08:08:37.434Z,17.49
2023-03-22T08:11:08.433Z,17.65
2023-03-22T08:13:36.342Z,17.67
2023-03-22T08:16:03.930Z,17.73
2023-03-22T08:18:31.730Z,18.04
2023-03-22T08:21:00.357Z,17.77
2023-03-22T08:23:40.901Z,17.76
2023-03-22T08:26:11.222Z,18.31
2023-03-22T08:28:38.997Z,18.59
2023-03-22T08:31:16.162Z,18.33
2023-03-22T08:33:44.604Z,18.20
2023-03-22T08:36:16.797Z,17.95
2023-03-22T08:38:45.472Z,17.55
2023-03-22T08:41:13.645Z,16.92
2023-03-22T08:43:41.296Z,16.37
2023-03-22T08:46:09.583Z,16.42
2023-03-22T08:48:38.021Z,16.28
2023-03-22T08:51:06.833Z,15.93
2023-03-22T08:53:37.075Z,15.64
2023-03-22T08:56:05.125Z,15.82
2023-03-22T08:58:32.697Z,15.84
2023-03-22T09:01:00.021Z,15.91
2023-03-22T09:03:27.878Z,15.51
2023-03-22T09:05:55.403Z,15.63
2023-03-22T09:08:23.028Z,15.73
2023-03-22T09:10:52.148Z,15.86
2023-03-22T09:13:21.712Z,16.08
2023-03-22T09:15:51.328Z,16.34
2023-03-22T09:18:19.629Z,16.98
2023-03-22T09:20:46.935Z,17.54
2023-03-22T09:23:15.582Z,18.10
2023-03-22T09:25:49.595Z,18.58
2023-03-22T09:28:17.545Z,18.20
2023-03-22T09:30:45.023Z,19.06
2023-03-22T09:33:12.688Z,19.21
2023-03-22T09:35:43.910Z,19.73
2023-03-22T09:38:12.437Z,20.21
2023-03-22T09:41:05.558Z,20.24
2023-03-22T09:43:42.140Z,20.57
2023-03-22T09:46:21.705Z,20.95
2023-03-22T09:48:51.628Z,22.06
2023-03-22T09:51:37.420Z,22.36
2023-03-22T09:54:14.228Z,22.52
2023-03-22T09:56:42.946Z,22.37
2023-03-22T09:59:40.079Z,22.78
2023-03-22T10:02:45.500Z,24.56
2023-03-22T10:05:50.847Z,26.34
2023-03-22T10:08:42.337Z,30.08
2023-03-22T10:12:05.557Z,28.36
2023-03-22T10:14:45.206Z,27.59
2023-03-22T10:17:19.039Z,26.62
2023-03-22T10:20:05.610Z,26.16
2023-03-22T10:22:42.050Z,26.25
2023-03-22T10:25:17.522Z,26.52
2023-03-22T10:27:50.549Z,29.08
2023-03-22T10:30:30.268Z,29.72
2023-03-22T10:33:03.385Z,29.01
2023-03-22T10:35:32.510Z,29.07
2023-03-22T10:38:05.613Z,27.78
2023-03-22T10:40:36.492Z,26.39
2023-03-22T10:43:28.201Z,24.51
2023-03-22T10:45:58.287Z,23.22
2023-03-22T10:48:39.303Z,23.51
2023-03-22T10:51:08.007Z,27.41
2023-03-22T10:53:51.781Z,25.06
2023-03-22T10:56:21.042Z,24.33
2023-03-22T10:58:57.301Z,23.02
2023-03-22T11:01:41.711Z,22.90
2023-03-22T11:04:16.851Z,23.07
2023-03-22T11:06:56.099Z,22.91
2023-03-22T11:09:26.024Z,23.80
2023-03-22T11:12:01.152Z,23.87
2023-03-22T11:14:37.111Z,24.44
2023-03-22T11:17:08.023Z,27.31
2023-03-22T11:19:51.521Z,33.48
2023-03-22T11:22:46.199Z,34.05
2023-03-22T11:25:28.005Z,32.98
2023-03-22T11:28:04.252Z,32.69
2023-03-22T11:30:34.289Z,40.75
2023-03-22T11:33:21.552Z,46.37
2023-03-22T11:36:01.056Z,48.27
2023-03-22T11:38:41.230Z,48.28
2023-03-22T11:41:35.864Z,50.07
2023-03-22T11:44:13.190Z,49.71
2023-03-22T11:46:58.098Z,50.59
2023-03-22T11:49:52.212Z,52.72
2023-03-22T11:52:26.082Z,53.49
2023-03-22T11:54:55.934Z,54.28
2023-03-22T11:57:31.663Z,53.03
2023-03-22T12:00:20.585Z,53.85
2023-03-22T12:03:13.879Z,53.76
2023-03-22T12:05:46.393Z,51.51
2023-03-22T12:08:47.520Z,52.44
2023-03-22T12:11:36.304Z,52.59
2023-03-22T12:14:27.314Z,52.49
2023-03-22T12:17:07.939Z,52.79
2023-03-22T12:19:58.232Z,51.83
2023-03-22T12:22:40.123Z,52.79
2023-03-22T12:25:19.343Z,52.46
2023-03-22T12:27:55.736Z,51.12
2023-03-22T12:30:31.840Z,49.58
2023-03-22T12:33:11.569Z,50.75
2023-03-22T12:35:45.766Z,44.98
2023-03-22T12:38:49.981Z,46.46
2023-03-22T12:41:40.960Z,46.59
2023-03-22T12:44:19.129Z,45.41
2023-03-22T12:46:56.851Z,44.39
2023-03-22T12:49:44.102Z,43.76
2023-03-22T12:52:25.235Z,45.23
2023-03-22T12:54:56.225Z,45.34
2023-03-22T12:57:23.816Z,46.84
2023-03-22T12:59:56.010Z,48.51
2023-03-22T13:02:35.114Z,49.86
2023-03-22T13:05:06.863Z,50.64
2023-03-22T13:07:48.653Z,51.09
2023-03-22T13:10:48.162Z,52.08
2023-03-22T13:13:21.877Z,51.40
2023-03-22T13:16:09.709Z,52.48
2023-03-22T13:18:57.504Z,53.15
2023-03-22T13:21:31.937Z,51.96
2023-03-22T13:24:10.350Z,43.89
2023-03-22T13:26:46.199Z,38.54
2023-03-22T13:29:38.272Z,38.04
2023-03-22T13:32:31.119Z,43.15
2023-03-22T13:34:59.797Z,45.81
2023-03-22T13:37:35.028Z,47.05
2023-03-22T13:40:36.486Z,46.43
2023-03-22T13:43:48.158Z,44.72
2023-03-22T13:46:20.032Z,40.95
2023-03-22T13:48:48.030Z,43.70
2023-03-22T13:51:25.749Z,43.98
2023-03-22T13:54:14.128Z,41.28
2023-03-22T13:56:44.648Z,43.19
2023-03-22T13:59:13.248Z,44.65
2023-03-22T14:01:58.959Z,45.14
2023-03-22T14:04:52.171Z,45.39
2023-03-22T14:07:31.698Z,44.88
2023-03-22T14:10:20.020Z,45.19
2023-03-22T14:13:27.736Z,44.13
2023-03-22T14:16:04.039Z,44.50
2023-03-22T14:18:36.517Z,44.80
2023-03-22T14:21:34.833Z,44.69
